createdAt,value
2023-07-14T00:01:47.902Z,69.37
2023-07-14T00:05:33.216Z,69.72
2023-07-14T00:09:19.322Z,69.61
2023-07-14T00:13:05.486Z,69.62
2023-07-14T00:16:48.349Z,69.71
2023-07-14T00:20:33.574Z,69.78
2023-07-14T00:24:18.159Z,70.30
2023-07-14T00:28:01.319Z,70.50
2023-07-14T00:31:45.402Z,70.93
2023-07-14T00:35:30.067Z,70.96
2023-07-14T00:39:12.833Z,71.22
2023-07-14T00:42:58.240Z,71.82
2023-07-14T00:46:41.264Z,72.74
2023-07-14T00:50:30.656Z,73.59
2023-07-14T00:54:35.199Z,73.13
2023-07-14T00:58:20.660Z,73.31
2023-07-14T01:02:21.595Z,73.60
2023-07-14T01:06:05.953Z,73.65
2023-07-14T01:09:49.895Z,74.46
2023-07-14T01:13:32.815Z,74.11
2023-07-14T01:17:19.248Z,74.17
2023-07-14T01:21:02.704Z,73.81
2023-07-14T01:24:50.442Z,74.27
2023-07-14T01:28:37.245Z,74.98
2023-07-14T01:32:21.583Z,74.99
2023-07-14T01:36:05.129Z,75.33
2023-07-14T01:39:48.390Z,74.70
2023-07-14T01:43:31.343Z,74.36
2023-07-14T01:47:15.819Z,74.79
2023-07-14T01:51:00.352Z,74.97
2023-07-14T01:54:46.485Z,75.33
2023-07-14T01:58:32.474Z,76.13
2023-07-14T02:02:20.521Z,76.57
2023-07-14T02:06:03.502Z,76.39
2023-07-14T02:09:46.626Z,76.53
2023-07-14T02:13:29.890Z,76.43
2023-07-14T02:17:23.950Z,77.30
2023-07-14T02:21:06.707Z,77.35
2023-07-14T02:24:49.812Z,78.10
2023-07-14T02:28:35.454Z,78.10
2023-07-14T02:32:25.531Z,78.40
2023-07-14T02:36:16.446Z,78.32
2023-07-14T02:40:00.943Z,78.82
2023-07-14T02:43:43.736Z,79.02
2023-07-14T02:47:28.656Z,79.19
2023-07-14T02:51:11.965Z,79.10
2023-07-14T02:54:54.984Z,79.27
2023-07-14T02:58:38.355Z,79.54
2023-07-14T03:02:21.128Z,79.15
2023-07-14T03:06:05.329Z,79.26
2023-07-14T03:09:48.044Z,79.62
2023-07-14T03:13:30.953Z,78.96
2023-07-14T03:17:13.724Z,78.67
2023-07-14T03:21:00.089Z,78.71
2023-07-14T03:24:44.266Z,78.25
2023-07-14T03:28:27.016Z,78.50
2023-07-14T03:32:13.526Z,79.24
2023-07-14T03:35:57.602Z,79.09
2023-07-14T03:39:40.381Z,78.94
2023-07-14T03:43:24.570Z,78.87
2023-07-14T03:47:07.968Z,78.44
2023-07-14T03:50:50.802Z,78.63
2023-07-14T03:54:33.832Z,78.51
2023-07-14T03:58:16.598Z,78.63
2023-07-14T04:02:00.741Z,78.42
2023-07-14T04:05:47.088Z,78.26
2023-07-14T04:09:30.003Z,78.68
2023-07-14T04:13:12.735Z,78.63
2023-07-14T04:16:55.542Z,77.40
2023-07-14T04:20:39.669Z,77.71
2023-07-14T04:24:22.408Z,76.94
2023-07-14T04:28:05.454Z,76.65
2023-07-14T04:31:48.660Z,76.95
2023-07-14T04:35:31.565Z,76.51
2023-07-14T04:39:15.860Z,76.55
2023-07-14T04:42:58.625Z,76.26
2023-07-14T04:46:42.346Z,74.29
2023-07-14T04:50:25.054Z,73.00
2023-07-14T04:54:08.416Z,70.93
2023-07-14T04:57:52.758Z,68.69
2023-07-14T05:01:35.660Z,67.87
2023-07-14T05:05:20.455Z,67.77
2023-07-14T05:09:03.591Z,67.81
2023-07-14T05:12:46.384Z,67.09
2023-07-14T05:16:30.534Z,66.84
2023-07-14T05:20:14.439Z,67.29
2023-07-14T05:23:57.165Z,68.13
2023-07-14T05:27:40.055Z,68.66
2023-07-14T05:31:24.593Z,68.97
2023-07-14T05:35:09.696Z,69.02
2023-07-14T05:38:54.895Z,69.30
2023-07-14T05:42:37.761Z,69.33
2023-07-14T05:46:21.257Z,69.05
2023-07-14T05:50:05.056Z,69.00
2023-07-14T05:53:49.405Z,68.58
2023-07-14T05:57:32.336Z,68.67
2023-07-14T06:01:15.154Z,68.82
2023-07-14T06:04:59.002Z,68.04
2023-07-14T06:08:43.252Z,67.95
2023-07-14T06:12:27.362Z,68.18
2023-07-14T06:16:10.102Z,66.64
2023-07-14T06:19:53.078Z,66.90
2023-07-14T06:23:35.801Z,66.71
2023-07-14T06:27:19.016Z,66.56
2023-07-14T06:31:06.356Z,66.18
2023-07-14T06:34:50.115Z,65.69
2023-07-14T06:38:33.012Z,65.10
2023-07-14T06:42:15.863Z,64.86
2023-07-14T06:45:58.783Z,64.65
2023-07-14T06:49:43.702Z,64.98
2023-07-14T06:53:27.203Z,64.93
2023-07-14T06:57:10.387Z,64.13
2023-07-14T07:00:53.288Z,63.15
2023-07-14T07:04:37.931Z,62.92
2023-07-14T07:08:22.050Z,62.54
2023-07-14T07:12:06.185Z,61.45
2023-07-14T07:15:50.052Z,60.64
2023-07-14T07:19:35.016Z,59.88
2023-07-14T07:23:18.457Z,59.51
2023-07-14T07:27:03.862Z,59.95
2023-07-14T07:30:46.977Z,59.66
2023-07-14T07:34:29.817Z,58.94
2023-07-14T07:38:13.630Z,58.61
2023-07-14T07:41:56.356Z,59.06
2023-07-14T07:45:41.133Z,58.71
2023-07-14T07:49:24.086Z,58.17
2023-07-14T07:53:06.849Z,57.95
2023-07-14T07:56:49.657Z,56.69
2023-07-14T08:00:32.963Z,56.63
2023-07-14T08:04:19.666Z,56.58
2023-07-14T08:08:02.744Z,56.58
2023-07-14T08:11:45.505Z,56.53
2023-07-14T08:15:30.559Z,56.54
2023-07-14T08:19:14.330Z,55.96
2023-07-14T08:22:58.633Z,55.34
2023-07-14T08:26:49.907Z,54.98
2023-07-14T08:30:32.865Z,54.57
2023-07-14T08:34:15.875Z,54.37
2023-07-14T08:38:00.182Z,53.80
2023-07-14T08:41:47.685Z,54.21
2023-07-14T08:45:38.874Z,54.18
2023-07-14T08:49:24.397Z,54.04
2023-07-14T08:53:13.904Z,53.53
2023-07-14T08:56:56.961Z,52.45
2023-07-14T09:00:43.064Z,52.26
2023-07-14T09:04:28.781Z,52.02
2023-07-14T09:08:13.901Z,51.76
2023-07-14T09:12:06.884Z,51.19
2023-07-14T09:15:50.773Z,51.05
2023-07-14T09:19:43.641Z,50.85
2023-07-14T09:23:46.722Z,49.96
2023-07-14T09:27:31.255Z,50.28
2023-07-14T09:31:22.064Z,48.28
2023-07-14T09:35:10.776Z,48.75
2023-07-14T09:38:58.367Z,47.20
2023-07-14T09:42:41.898Z,47.05
2023-07-14T09:46:24.952Z,47.28
2023-07-14T09:50:12.403Z,46.03
2023-07-14T09:54:01.608Z,45.36
2023-07-14T09:57:53.785Z,45.35
2023-07-14T10:01:51.533Z,45.15
2023-07-14T10:05:38.995Z,45.11
2023-07-14T10:09:24.268Z,44.04
2023-07-14T10:13:18.805Z,44.31
2023-07-14T10:17:01.633Z,44.43
2023-07-14T10:20:57.380Z,44.84
2023-07-14T10:24:42.300Z,44.01
2023-07-14T10:28:29.074Z,44.24
2023-07-14T10:32:18.960Z,43.59
2023-07-14T10:36:05.076Z,43.96
2023-07-14T10:39:53.408Z,43.66
2023-07-14T10:43:42.743Z,42.21
2023-07-14T10:47:29.673Z,42.80
2023-07-14T10:51:22.411Z,42.89
2023-07-14T10:55:16.037Z,42.97
2023-07-14T10:59:01.307Z,43.00
2023-07-14T11:02:49.646Z,42.68
2023-07-14T11:06:33.973Z,41.45
2023-07-14T11:10:30.288Z,41.86
2023-07-14T11:14:23.144Z,41.61
2023-07-14T11:18:14.378Z,41.12
2023-07-14T11:22:16.097Z,41.43
2023-07-14T11:26:08.263Z,41.27
2023-07-14T11:29:55.676Z,40.97
2023-07-14T11:33:43.406Z,41.47
2023-07-14T11:37:38.345Z,40.55
2023-07-14T11:41:24.853Z,39.90
2023-07-14T11:45:14.365Z,40.21
2023-07-14T11:49:07.007Z,40.63
2023-07-14T11:53:00.262Z,39.64
2023-07-14T11:56:46.042Z,39.26
2023-07-14T12:00:29.718Z,38.50
2023-07-14T12:04:30.180Z,38.43
2023-07-14T12:08:23.689Z,38.91
2023-07-14T12:12:10.189Z,38.87
2023-07-14T12:16:08.256Z,38.77
2023-07-14T12:19:55.862Z,37.18
2023-07-14T12:23:39.656Z,38.29
2023-07-14T12:27:29.394Z,38.32
2023-07-14T12:31:14.897Z,37.91
2023-07-14T12:34:58.431Z,38.36
2023-07-14T12:38:46.073Z,37.89
2023-07-14T12:42:30.184Z,35.89
2023-07-14T12:46:17.699Z,36.40
2023-07-14T12:50:01.181Z,36.41
2023-07-14T12:53:44.279Z,35.38
2023-07-14T12:57:27.041Z,34.90
2023-07-14T13:01:11.303Z,34.45
2023-07-14T13:04:54.369Z,34.28
2023-07-14T13:08:37.165Z,34.15
2023-07-14T13:12:19.904Z,34.28
2023-07-14T13:16:05.206Z,33.80
2023-07-14T13:19:50.485Z,34.66
2023-07-14T13:23:34.307Z,33.66
2023-07-14T13:27:21.732Z,33.00
2023-07-14T13:31:07.131Z,33.20
2023-07-14T13:34:53.815Z,32.55
2023-07-14T13:38:36.900Z,33.53
2023-07-14T13:42:25.605Z,31.33
2023-07-14T13:46:14.359Z,31.59
2023-07-14T13:49:59.400Z,33.20
2023-07-14T13:53:42.139Z,33.61
2023-07-14T13:57:25.379Z,34.15
2023-07-14T14:01:10.529Z,34.15
2023-07-14T14:04:53.764Z,33.84
2023-07-14T14:08:37.792Z,33.37
2023-07-14T14:12:20.630Z,31.42
2023-07-14T14:16:07.135Z,32.08
2023-07-14T14:19:49.951Z,31.66
2023-07-14T14:23:33.249Z,32.02
2023-07-14T14:27:17.399Z,32.06
2023-07-14T14:31:01.674Z,33.22
2023-07-14T14:34:45.699Z,33.30
2023-07-14T14:38:42.469Z,33.42
2023-07-14T14:42:28.947Z,33.94
2023-07-14T14:46:11.768Z,33.70
2023-07-14T14:49:54.686Z,33.58
2023-07-14T14:53:37.514Z,32.67
2023-07-14T14:57:20.477Z,30.18
2023-07-14T15:01:06.360Z,26.31
2023-07-14T15:04:49.076Z,23.07
2023-07-14T15:08:32.298Z,20.92
2023-07-14T15:12:17.127Z,17.92
2023-07-14T15:16:01.666Z,16.38
2023-07-14T15:19:45.815Z,14.69
2023-07-14T15:23:28.748Z,14.30
2023-07-14T15:27:16.762Z,13.53
2023-07-14T15:30:59.626Z,12.56
2023-07-14T15:34:42.327Z,100.00
2023-07-14T15:38:26.640Z,11.00
2023-07-14T15:42:11.745Z,10.43
2023-07-14T15:45:56.138Z,10.22
2023-07-14T15:49:38.929Z,9.44
2023-07-14T15:53:22.985Z,9.39
2023-07-14T15:57:13.614Z,8.09
2023-07-14T16:00:58.204Z,8.61
2023-07-14T16:04:40.995Z,8.79
2023-07-14T16:08:28.525Z,8.34
2023-07-14T16:12:18.008Z,8.51
2023-07-14T16:16:00.828Z,9.36
2023-07-14T16:19:43.565Z,9.74
2023-07-14T16:23:29.473Z,10.75
2023-07-14T16:27:19.349Z,11.46
2023-07-14T16:31:02.120Z,12.77
2023-07-14T16:34:45.049Z,13.94
2023-07-14T16:38:27.837Z,16.11
2023-07-14T16:42:12.506Z,16.29
2023-07-14T16:45:56.560Z,17.01
2023-07-14T16:49:40.258Z,17.60
2023-07-14T16:53:23.137Z,18.58
2023-07-14T16:57:22.343Z,20.09
2023-07-14T17:01:07.074Z,20.69
2023-07-14T17:04:50.177Z,21.28
2023-07-14T17:08:33.048Z,21.39
2023-07-14T17:12:16.101Z,21.75
2023-07-14T17:16:00.480Z,22.14
2023-07-14T17:19:45.289Z,22.70
2023-07-14T17:23:30.748Z,23.27
2023-07-14T17:27:17.097Z,23.32
2023-07-14T17:31:01.253Z,23.96
2023-07-14T17:34:45.650Z,24.67
2023-07-14T17:38:30.445Z,24.56
2023-07-14T17:42:17.636Z,24.95
2023-07-14T17:46:00.401Z,25.40
2023-07-14T17:49:43.304Z,25.35
2023-07-14T17:53:31.427Z,26.31
2023-07-14T17:57:17.659Z,26.66
2023-07-14T18:01:00.470Z,27.64
2023-07-14T18:04:43.738Z,28.16
2023-07-14T18:08:29.127Z,28.87
2023-07-14T18:12:15.052Z,29.49
2023-07-14T18:15:57.856Z,30.24
2023-07-14T18:19:40.816Z,30.94
2023-07-14T18:23:26.010Z,31.55
2023-07-14T18:27:17.812Z,31.63
2023-07-14T18:31:01.754Z,32.00
2023-07-14T18:34:45.534Z,32.62
2023-07-14T18:38:31.095Z,32.69
2023-07-14T18:42:16.780Z,32.84
2023-07-14T18:45:59.872Z,32.77
2023-07-14T18:49:43.706Z,33.18
2023-07-14T18:53:28.839Z,34.03
2023-07-14T18:57:19.878Z,34.23
2023-07-14T19:01:05.857Z,34.77
2023-07-14T19:04:48.677Z,35.76
2023-07-14T19:08:32.293Z,35.88
2023-07-14T19:12:15.115Z,36.39
2023-07-14T19:16:01.135Z,36.84
2023-07-14T19:19:44.931Z,37.56
2023-07-14T19:23:29.407Z,37.76
2023-07-14T19:27:15.538Z,38.98
2023-07-14T19:31:00.033Z,39.77
2023-07-14T19:34:49.299Z,39.58
2023-07-14T19:38:32.625Z,39.76
2023-07-14T19:42:17.688Z,40.08
2023-07-14T19:46:02.649Z,40.58
2023-07-14T19:49:46.047Z,41.11
2023-07-14T19:53:31.251Z,41.66
2023-07-14T19:57:16.024Z,41.90
2023-07-14T20:01:00.367Z,42.07
2023-07-14T20:04:44.624Z,42.42
2023-07-14T20:08:30.045Z,42.63
2023-07-14T20:12:17.377Z,43.12
2023-07-14T20:16:05.598Z,43.16
2023-07-14T20:19:49.793Z,43.53
2023-07-14T20:23:37.157Z,43.71
2023-07-14T20:27:22.025Z,43.88
2023-07-14T20:31:11.117Z,44.39
2023-07-14T20:34:59.780Z,44.48
2023-07-14T20:38:44.087Z,44.59
2023-07-14T20:42:27.257Z,44.33
2023-07-14T20:46:24.905Z,45.07
2023-07-14T20:50:15.074Z,45.24
2023-07-14T20:54:00.186Z,45.13
2023-07-14T20:57:43.894Z,45.29
2023-07-14T21:01:28.415Z,45.74
2023-07-14T21:05:13.066Z,45.87
2023-07-14T21:08:59.471Z,46.03
2023-07-14T21:12:47.356Z,47.38
2023-07-14T21:16:32.340Z,47.39
2023-07-14T21:20:16.919Z,47.56
2023-07-14T21:24:01.088Z,47.63
2023-07-14T21:27:43.912Z,47.93
2023-07-14T21:31:32.767Z,48.29
2023-07-14T21:35:21.760Z,48.72
2023-07-14T21:39:14.811Z,49.21
2023-07-14T21:42:57.630Z,49.84
2023-07-14T21:46:41.177Z,50.38
2023-07-14T21:50:25.872Z,50.50
2023-07-14T21:54:12.093Z,50.37
2023-07-14T21:57:55.075Z,51.18
2023-07-14T22:01:39.552Z,51.61
2023-07-14T22:05:22.995Z,52.06
2023-07-14T22:09:07.642Z,52.46
2023-07-14T22:12:50.461Z,52.88
2023-07-14T22:16:33.373Z,52.88
2023-07-14T22:20:18.321Z,52.96
2023-07-14T22:24:02.136Z,52.81
2023-07-14T22:27:51.199Z,53.32
2023-07-14T22:31:34.625Z,53.85
2023-07-14T22:35:19.256Z,54.45
2023-07-14T22:39:02.240Z,54.88
2023-07-14T22:42:47.344Z,55.53
2023-07-14T22:46:30.269Z,55.91
2023-07-14T22:50:16.427Z,56.18
2023-07-14T22:54:00.583Z,56.43
2023-07-14T22:57:46.023Z,56.38
2023-07-14T23:01:35.150Z,56.49
2023-07-14T23:05:22.487Z,56.94
2023-07-14T23:09:05.768Z,56.99
2023-07-14T23:12:51.824Z,57.53
2023-07-14T23:16:36.783Z,58.10
2023-07-14T23:20:21.068Z,59.13
2023-07-14T23:24:06.497Z,59.43
2023-07-14T23:27:49.539Z,59.88
2023-07-14T23:31:37.609Z,60.16
2023-07-14T23:35:23.653Z,60.40
2023-07-14T23:39:07.447Z,60.59
2023-07-14T23:42:50.252Z,61.20
2023-07-14T23:46:34.063Z,61.76
2023-07-14T23:50:17.156Z,61.66
2023-07-14T23:54:03.440Z,62.31
2023-07-14T23:57:46.219Z,62.51
